createdAt,value
2022-12-23T00:01:54.881Z,95.76
2022-12-23T00:04:22.139Z,95.54
2022-12-23T00:06:49.451Z,95.89
2022-12-23T00:09:17.012Z,95.79
2022-12-23T00:12:12.535Z,95.80
2022-12-23T00:14:57.321Z,96.02
2022-12-23T00:17:25.080Z,96.06
2022-12-23T00:19:52.001Z,96.06
2022-12-23T00:22:19.201Z,96.20
2022-12-23T00:24:46.345Z,96.01
2022-12-23T00:27:13.364Z,96.31
2022-12-23T00:29:40.454Z,96.16
2022-12-23T00:32:07.682Z,96.20
2022-12-23T00:34:34.656Z,96.21
2022-12-23T00:37:01.685Z,96.17
2022-12-23T00:39:47.289Z,96.38
2022-12-23T00:42:33.376Z,96.40
2022-12-23T00:45:15.971Z,96.44
2022-12-23T00:48:00.820Z,96.47
2022-12-23T00:50:28.274Z,96.74
2022-12-23T00:52:55.274Z,96.70
2022-12-23T00:55:22.397Z,96.79
2022-12-23T00:57:49.656Z,97.04
2022-12-23T01:00:18.182Z,96.82
2022-12-23T01:03:03.195Z,96.94
2022-12-23T01:05:39.843Z,96.97
2022-12-23T01:08:08.452Z,97.05
2022-12-23T01:10:37.625Z,96.95
2022-12-23T01:13:04.781Z,97.27
2022-12-23T01:15:32.145Z,97.36
2022-12-23T01:17:59.112Z,97.52
2022-12-23T01:20:26.318Z,97.54
2022-12-23T01:22:53.566Z,97.65
2022-12-23T01:25:20.611Z,97.67
2022-12-23T01:27:47.596Z,97.61
2022-12-23T01:30:15.304Z,97.91
2022-12-23T01:32:42.404Z,97.95
2022-12-23T01:35:10.199Z,98.13
2022-12-23T01:37:37.388Z,97.99
2022-12-23T01:40:05.289Z,98.11
2022-12-23T01:42:47.863Z,98.16
2022-12-23T01:45:20.585Z,98.10
2022-12-23T01:47:53.359Z,98.38
2022-12-23T01:50:25.194Z,98.30
2022-12-23T01:53:00.495Z,98.25
2022-12-23T01:55:36.076Z,98.31
2022-12-23T01:58:09.989Z,98.19
2022-12-23T02:00:56.103Z,98.35
2022-12-23T02:03:40.787Z,98.71
2022-12-23T02:06:27.658Z,98.66
2022-12-23T02:09:12.315Z,98.79
2022-12-23T02:11:56.037Z,98.93
2022-12-23T02:14:56.721Z,98.99
2022-12-23T02:17:32.462Z,99.19
2022-12-23T02:20:26.910Z,99.03
2022-12-23T02:23:20.218Z,99.14
2022-12-23T02:26:03.552Z,99.09
2022-12-23T02:28:54.017Z,99.32
2022-12-23T02:31:29.290Z,99.23
2022-12-23T02:34:02.461Z,99.05
2022-12-23T02:36:40.362Z,99.05
2022-12-23T02:39:12.008Z,99.11
2022-12-23T02:41:49.970Z,99.15
2022-12-23T02:44:35.291Z,99.10
2022-12-23T02:47:05.843Z,99.24
2022-12-23T02:49:38.019Z,99.17
2022-12-23T02:52:11.511Z,99.06
2022-12-23T02:54:45.253Z,99.13
2022-12-23T02:57:15.965Z,99.01
2022-12-23T02:59:48.093Z,99.13
2022-12-23T03:02:15.356Z,99.31
2022-12-23T03:04:43.221Z,99.18
2022-12-23T03:07:18.658Z,99.27
2022-12-23T03:09:59.521Z,99.31
2022-12-23T03:12:34.769Z,99.36
2022-12-23T03:15:14.019Z,99.31
2022-12-23T03:17:58.692Z,99.36
2022-12-23T03:20:29.742Z,99.44
2022-12-23T03:23:04.974Z,99.61
2022-12-23T03:25:37.114Z,99.57
2022-12-23T03:28:12.055Z,99.58
2022-12-23T03:30:43.204Z,99.55
2022-12-23T03:33:16.611Z,99.58
2022-12-23T03:35:49.725Z,99.45
2022-12-23T03:38:20.341Z,99.45
2022-12-23T03:40:51.081Z,99.40
2022-12-23T03:43:24.549Z,99.45
2022-12-23T03:45:55.376Z,99.48
2022-12-23T03:48:28.261Z,99.49
2022-12-23T03:51:01.968Z,99.34
2022-12-23T03:53:33.964Z,99.47
2022-12-23T03:56:05.583Z,99.49
2022-12-23T03:58:39.606Z,99.51
2022-12-23T04:01:19.193Z,99.30
2022-12-23T04:03:56.321Z,99.15
2022-12-23T04:06:25.761Z,99.19
2022-12-23T04:08:53.800Z,99.23
2022-12-23T04:11:21.267Z,99.02
2022-12-23T04:13:49.840Z,98.75
2022-12-23T04:16:17.388Z,98.78
2022-12-23T04:18:44.572Z,98.90
2022-12-23T04:21:11.751Z,98.76
2022-12-23T04:23:40.506Z,98.75
2022-12-23T04:26:07.704Z,98.54
2022-12-23T04:28:34.849Z,98.45
2022-12-23T04:31:01.886Z,98.31
2022-12-23T04:33:28.878Z,98.42
2022-12-23T04:35:56.154Z,98.36
2022-12-23T04:38:23.186Z,98.31
2022-12-23T04:40:50.145Z,98.28
2022-12-23T04:43:17.384Z,98.36
2022-12-23T04:45:44.433Z,98.26
2022-12-23T04:48:11.512Z,98.01
2022-12-23T04:50:38.741Z,98.13
2022-12-23T04:53:05.778Z,98.05
2022-12-23T04:55:32.727Z,97.99
2022-12-23T04:57:59.978Z,98.18
2022-12-23T05:00:27.244Z,98.09
2022-12-23T05:02:54.364Z,98.12
2022-12-23T05:05:22.586Z,98.27
2022-12-23T05:07:51.697Z,98.47
2022-12-23T05:10:19.049Z,98.25
2022-12-23T05:12:46.158Z,98.26
2022-12-23T05:15:14.186Z,98.29
2022-12-23T05:17:41.275Z,98.29
2022-12-23T05:20:11.438Z,97.99
2022-12-23T05:22:38.454Z,97.94
2022-12-23T05:25:06.136Z,97.89
2022-12-23T05:27:33.474Z,98.03
2022-12-23T05:30:00.546Z,98.20
2022-12-23T05:32:27.722Z,97.90
2022-12-23T05:34:55.142Z,97.97
2022-12-23T05:37:22.884Z,97.98
2022-12-23T05:39:49.930Z,97.86
2022-12-23T05:42:19.512Z,98.00
2022-12-23T05:44:46.544Z,97.95
2022-12-23T05:47:14.039Z,97.81
2022-12-23T05:49:41.105Z,97.62
2022-12-23T05:52:08.550Z,97.63
2022-12-23T05:54:35.680Z,97.65
2022-12-23T05:57:02.869Z,97.65
2022-12-23T05:59:31.543Z,97.58
2022-12-23T06:01:59.114Z,97.42
2022-12-23T06:04:26.697Z,97.37
2022-12-23T06:06:53.926Z,97.25
2022-12-23T06:09:21.061Z,97.19
2022-12-23T06:11:48.247Z,97.09
2022-12-23T06:14:15.655Z,97.16
2022-12-23T06:16:42.784Z,97.14
2022-12-23T06:19:09.887Z,97.11
2022-12-23T06:21:36.913Z,97.02
2022-12-23T06:24:03.999Z,97.04
2022-12-23T06:26:31.309Z,97.29
2022-12-23T06:28:58.279Z,97.29
2022-12-23T06:31:25.354Z,97.28
2022-12-23T06:33:52.759Z,97.42
2022-12-23T06:36:20.071Z,97.37
2022-12-23T06:38:47.163Z,97.29
2022-12-23T06:41:14.625Z,97.58
2022-12-23T06:43:42.097Z,97.50
2022-12-23T06:46:09.311Z,97.79
2022-12-23T06:48:36.889Z,97.99
2022-12-23T06:51:04.040Z,98.09
2022-12-23T06:53:31.203Z,98.06
2022-12-23T06:56:04.292Z,97.90
2022-12-23T06:58:32.050Z,97.88
2022-12-23T07:00:59.429Z,97.58
2022-12-23T07:03:26.711Z,97.70
2022-12-23T07:05:54.438Z,97.73
2022-12-23T07:08:22.199Z,97.58
2022-12-23T07:10:50.153Z,97.47
2022-12-23T07:13:17.990Z,97.62
2022-12-23T07:15:45.303Z,97.26
2022-12-23T07:18:12.284Z,97.24
2022-12-23T07:20:39.263Z,97.37
2022-12-23T07:23:06.418Z,97.18
2022-12-23T07:25:33.385Z,96.99
2022-12-23T07:28:00.631Z,96.93
2022-12-23T07:30:28.802Z,96.91
2022-12-23T07:32:56.151Z,96.84
2022-12-23T07:35:23.088Z,96.53
2022-12-23T07:37:55.544Z,96.26
2022-12-23T07:40:23.135Z,96.07
2022-12-23T07:42:55.299Z,95.84
2022-12-23T07:45:22.852Z,95.62
2022-12-23T07:47:53.332Z,95.27
2022-12-23T07:50:20.716Z,94.84
2022-12-23T07:52:47.990Z,94.84
2022-12-23T07:55:15.158Z,94.76
2022-12-23T07:57:42.402Z,94.70
2022-12-23T08:00:14.251Z,94.95
2022-12-23T08:02:42.232Z,94.52
2022-12-23T08:05:11.010Z,94.78
2022-12-23T08:07:38.385Z,94.81
2022-12-23T08:10:05.836Z,94.78
2022-12-23T08:12:33.264Z,94.90
2022-12-23T08:15:00.231Z,94.74
2022-12-23T08:17:31.870Z,94.71
2022-12-23T08:19:59.044Z,94.56
2022-12-23T08:22:26.065Z,94.51
2022-12-23T08:24:53.662Z,94.77
2022-12-23T08:27:22.536Z,94.71
2022-12-23T08:29:49.683Z,94.77
2022-12-23T08:32:16.741Z,94.42
2022-12-23T08:34:44.357Z,94.43
2022-12-23T08:37:11.480Z,94.20
2022-12-23T08:39:38.566Z,94.28
2022-12-23T08:42:05.822Z,94.33
2022-12-23T08:44:33.088Z,93.78
2022-12-23T08:47:00.149Z,93.55
2022-12-23T08:49:27.286Z,93.30
2022-12-23T08:51:54.349Z,93.23
2022-12-23T08:54:22.413Z,93.23
2022-12-23T08:56:49.662Z,93.34
2022-12-23T08:59:19.908Z,93.12
2022-12-23T09:01:47.689Z,92.97
2022-12-23T09:04:14.929Z,92.74
2022-12-23T09:06:43.490Z,92.61
2022-12-23T09:09:12.112Z,92.50
2022-12-23T09:11:39.847Z,92.30
2022-12-23T09:14:08.871Z,92.30
2022-12-23T09:16:36.089Z,92.41
2022-12-23T09:19:03.844Z,92.53
2022-12-23T09:21:31.196Z,92.63
2022-12-23T09:23:58.388Z,92.53
2022-12-23T09:26:27.684Z,92.58
2022-12-23T09:28:56.816Z,92.14
2022-12-23T09:31:32.586Z,91.94
2022-12-23T09:34:03.158Z,91.93
2022-12-23T09:36:30.477Z,91.91
2022-12-23T09:38:59.562Z,91.91
2022-12-23T09:41:42.916Z,92.09
2022-12-23T09:44:34.851Z,92.22
2022-12-23T09:47:06.295Z,92.41
2022-12-23T09:49:33.834Z,92.60
2022-12-23T09:52:05.535Z,92.28
2022-12-23T09:54:42.516Z,92.39
2022-12-23T09:57:19.822Z,92.30
2022-12-23T10:00:02.765Z,92.35
2022-12-23T10:02:44.105Z,92.65
2022-12-23T10:05:23.770Z,92.53
2022-12-23T10:07:54.459Z,92.37
2022-12-23T10:10:30.534Z,92.45
2022-12-23T10:12:59.830Z,92.46
2022-12-23T10:15:31.167Z,92.57
2022-12-23T10:18:03.721Z,92.64
2022-12-23T10:20:40.472Z,92.66
2022-12-23T10:23:12.201Z,92.80
2022-12-23T10:25:47.723Z,92.93
2022-12-23T10:28:16.342Z,93.05
2022-12-23T10:31:17.321Z,93.04
2022-12-23T10:33:43.409Z,92.92
2022-12-23T10:36:21.107Z,93.06
2022-12-23T10:39:00.836Z,93.40
2022-12-23T10:41:39.241Z,93.16
2022-12-23T10:44:25.876Z,93.37
2022-12-23T10:47:03.059Z,93.29
2022-12-23T10:49:43.493Z,93.30
2022-12-23T10:52:16.699Z,93.61
2022-12-23T10:54:46.488Z,93.54
2022-12-23T10:57:16.037Z,93.62
2022-12-23T10:59:43.155Z,93.80
2022-12-23T11:02:29.521Z,93.66
2022-12-23T11:04:56.788Z,93.69
2022-12-23T11:07:43.879Z,93.72
2022-12-23T11:10:19.485Z,94.11
2022-12-23T11:12:49.291Z,94.19
2022-12-23T11:15:31.183Z,94.30
2022-12-23T11:18:17.674Z,94.61
2022-12-23T11:20:47.021Z,94.75
2022-12-23T11:23:27.070Z,94.90
2022-12-23T11:26:03.797Z,94.86
2022-12-23T11:28:31.708Z,94.88
2022-12-23T11:31:05.678Z,95.12
2022-12-23T11:33:35.785Z,95.13
2022-12-23T11:36:15.993Z,95.09
2022-12-23T11:38:52.282Z,95.14
2022-12-23T11:41:24.854Z,95.17
2022-12-23T11:43:58.916Z,95.35
2022-12-23T11:46:30.610Z,95.37
2022-12-23T11:49:18.660Z,95.26
2022-12-23T11:51:46.586Z,95.22
2022-12-23T11:54:19.368Z,95.31
2022-12-23T11:56:49.879Z,95.32
2022-12-23T11:59:32.458Z,95.46
2022-12-23T12:02:03.206Z,95.86
2022-12-23T12:04:35.374Z,95.88
2022-12-23T12:07:04.921Z,96.20
2022-12-23T12:09:33.995Z,96.13
2022-12-23T12:12:07.014Z,96.51
2022-12-23T12:14:42.873Z,96.35
2022-12-23T12:17:17.642Z,96.88
2022-12-23T12:19:58.169Z,96.73
2022-12-23T12:22:33.909Z,97.31
2022-12-23T12:25:06.408Z,97.13
2022-12-23T12:27:40.683Z,97.31
2022-12-23T12:30:13.711Z,97.32
2022-12-23T12:32:48.142Z,97.44
2022-12-23T12:35:20.092Z,97.92
2022-12-23T12:37:53.157Z,97.64
2022-12-23T12:40:29.318Z,97.92
2022-12-23T12:43:01.025Z,97.98
2022-12-23T12:45:34.928Z,98.06
2022-12-23T12:48:18.755Z,98.51
2022-12-23T12:50:55.722Z,98.52
2022-12-23T12:53:23.942Z,98.81
2022-12-23T12:55:57.254Z,98.86
2022-12-23T12:58:25.784Z,99.11
2022-12-23T13:01:04.787Z,99.38
2022-12-23T13:03:51.487Z,99.27
2022-12-23T13:06:28.166Z,99.40
2022-12-23T13:09:06.079Z,99.82
2022-12-23T13:11:45.544Z,99.93
2022-12-23T13:14:24.354Z,99.88
2022-12-23T13:17:01.557Z,100.00
2022-12-23T13:19:35.781Z,100.00
2022-12-23T13:22:10.193Z,100.00
2022-12-23T13:24:47.518Z,100.00
2022-12-23T13:27:20.630Z,100.00
2022-12-23T13:30:06.504Z,100.00
2022-12-23T13:33:05.403Z,100.00
2022-12-23T13:35:44.805Z,100.00
2022-12-23T13:38:24.698Z,100.00
2022-12-23T13:41:00.544Z,100.00
2022-12-23T13:43:37.172Z,100.00
2022-12-23T13:46:10.626Z,100.00
2022-12-23T13:48:42.130Z,100.00
2022-12-23T13:51:18.945Z,100.00
2022-12-23T13:54:03.871Z,100.00
2022-12-23T13:56:41.172Z,100.00
2022-12-23T13:59:13.719Z,100.00
2022-12-23T14:01:47.933Z,100.00
2022-12-23T14:04:34.607Z,100.00
2022-12-23T14:07:04.183Z,100.00
2022-12-23T14:09:37.160Z,100.00
2022-12-23T14:12:24.259Z,100.00
2022-12-23T14:15:05.875Z,100.00
2022-12-23T14:17:43.143Z,100.00
2022-12-23T14:20:29.830Z,100.00
2022-12-23T14:23:07.605Z,100.00
2022-12-23T14:25:53.128Z,100.00
2022-12-23T14:28:43.795Z,100.00
2022-12-23T14:31:32.149Z,100.00
2022-12-23T14:34:06.087Z,100.00
2022-12-23T14:36:33.523Z,100.00
2022-12-23T14:39:32.739Z,100.00
2022-12-23T14:42:06.506Z,100.00
2022-12-23T14:44:51.811Z,100.00
2022-12-23T14:47:40.442Z,100.00
2022-12-23T14:50:42.576Z,100.00
2022-12-23T14:53:24.776Z,100.00
2022-12-23T14:56:10.757Z,100.00
2022-12-23T14:59:03.675Z,100.00
2022-12-23T15:01:39.005Z,100.00
2022-12-23T15:04:17.145Z,100.00
2022-12-23T15:06:46.600Z,100.00
2022-12-23T15:09:24.230Z,100.00
2022-12-23T15:11:51.817Z,100.00
2022-12-23T15:14:29.834Z,100.00
2022-12-23T15:16:56.970Z,100.00
2022-12-23T15:19:26.442Z,100.00
2022-12-23T15:22:17.880Z,100.00
2022-12-23T15:24:48.580Z,100.00
2022-12-23T15:27:30.220Z,100.00
2022-12-23T15:29:58.322Z,100.00
2022-12-23T15:32:26.772Z,100.00
2022-12-23T15:34:58.320Z,100.00
2022-12-23T15:37:30.177Z,100.00
2022-12-23T15:40:04.851Z,100.00
2022-12-23T15:42:38.539Z,100.00
2022-12-23T15:45:28.085Z,100.00
2022-12-23T15:47:55.201Z,100.00
2022-12-23T15:50:22.693Z,100.00
2022-12-23T15:52:51.800Z,100.00
2022-12-23T15:55:24.859Z,100.00
2022-12-23T15:57:53.433Z,100.00
2022-12-23T16:00:25.316Z,100.00
2022-12-23T16:03:04.760Z,100.00
2022-12-23T16:05:37.598Z,100.00
2022-12-23T16:08:29.782Z,100.00
2022-12-23T16:11:08.037Z,100.00
2022-12-23T16:13:36.230Z,100.00
2022-12-23T16:16:31.436Z,100.00
2022-12-23T16:18:58.672Z,100.00
2022-12-23T16:21:29.331Z,100.00
2022-12-23T16:23:57.120Z,100.00
2022-12-23T16:26:25.620Z,100.00
2022-12-23T16:28:56.320Z,100.00
2022-12-23T16:31:25.189Z,100.00
2022-12-23T16:33:55.592Z,100.00
2022-12-23T16:36:34.034Z,100.00
2022-12-23T16:39:13.094Z,100.00
2022-12-23T16:41:40.659Z,100.00
2022-12-23T16:44:07.996Z,100.00
2022-12-23T16:46:38.776Z,100.00
2022-12-23T16:49:11.029Z,100.00
2022-12-23T16:51:40.439Z,100.00
2022-12-23T16:54:07.977Z,100.00
2022-12-23T16:56:37.920Z,100.00
2022-12-23T16:59:05.432Z,100.00
2022-12-23T17:01:34.699Z,100.00
2022-12-23T17:04:02.927Z,100.00
2022-12-23T17:06:30.283Z,100.00
2022-12-23T17:08:57.921Z,100.00
2022-12-23T17:11:32.489Z,100.00
2022-12-23T17:14:04.630Z,100.00
2022-12-23T17:16:32.947Z,100.00
2022-12-23T17:19:00.249Z,100.00
2022-12-23T17:21:34.114Z,100.00
2022-12-23T17:24:07.698Z,100.00
2022-12-23T17:26:34.805Z,100.00
2022-12-23T17:29:04.661Z,100.00
2022-12-23T17:31:32.870Z,100.00
2022-12-23T17:34:00.041Z,100.00
2022-12-23T17:36:27.341Z,100.00
2022-12-23T17:38:54.575Z,100.00
2022-12-23T17:41:27.936Z,100.00
2022-12-23T17:43:55.092Z,100.00
2022-12-23T17:46:23.096Z,100.00
2022-12-23T17:48:50.364Z,100.00
2022-12-23T17:51:19.393Z,100.00
2022-12-23T17:53:47.495Z,100.00
2022-12-23T17:56:19.266Z,100.00
2022-12-23T17:58:48.183Z,100.00
2022-12-23T18:01:22.475Z,100.00
